Jamestown Regional Airport Jamestown US
ICAO: KJMS
IATA: JMS
Category: Medium
Scheduled Services: Yes

Elevation: 1500 ft
TransAlt. 18000 ft.

Airport Communications:
ASOS:118.425
MINNEAPOLIS CNTR:124.2
GRAND FORKS RDO:122.2
CTAF/UNICOM:123

KJMS Zoom In..

If you have problems with the map follow the link
https://www.worldairports.se/pages/airport.php?
ICAO=KJMS

Runways:

(A) RW 04 length 5750 ft width 75 ft
---- / hdg 37

(B) RW 13 length 6502 ft width 100 ft
---- / hdg 127

(C) RW 22 length 5750 ft width 75 ft
---- / hdg 217

(D) RW 31 length 6502 ft width 100 ft
ILS 109.30 / hdg 307

Location; KJMS
Day. 14 / Time. 16.56 Zulu
* Altimeter: 30.08
* Temperature: -21° c. 5.8°f.
* Wind from: 340° Speed 08 kn.
Dewpoint: -24° c.
Visibility: 10 Statute Miles.
Clouds: Clear (automated report).

KJMS 141656Z AUTO 34008KT 10SM CLR M21/M24 A3008 RMK AO2 SLP230 T12111239


Wind From 340°
Speed 08 kn.

 
 
jpsmedia worldairports.se 2019   terms of use